Time;durP1;ratioP1;P1;durP2;ratioP2;P2;SDS_P1;SDS_P2;PMS_P1;PMS_P2;Temp;Humidity;BMP_temperature;BMP_pressure;BME280_temperature;BME280_humidity;BME280_pressure;Samples;Min_cycle;Max_cycle;Signal;HPM_P1;HPM_P2
2022/09/26 00:01:43;;;;;;;3.93;3.53;;;10.30;99.90;;;;;;6222943;23;20016;-85
2022/09/26 00:04:20;;;;;;;3.42;2.92;;;10.20;99.90;;;;;;6207240;23;20039;-85
2022/09/26 00:07:23;;;;;;;2.65;2.45;;;10.20;99.90;;;;;;6251001;23;20760;-84
2022/09/26 00:09:54;;;;;;;2.85;2.47;;;10.10;99.90;;;;;;6255080;23;20020;-85
2022/09/26 00:12:21;;;;;;;2.20;2.00;;;10.10;99.90;;;;;;6257024;23;20020;-85
2022/09/26 00:14:49;;;;;;;2.50;2.30;;;10.20;99.90;;;;;;6221442;23;20020;-85
2022/09/26 00:17:16;;;;;;;7.43;2.40;;;10.20;99.90;;;;;;6222448;23;20027;-85
2022/09/26 00:19:44;;;;;;;1.58;1.35;;;10.20;99.90;;;;;;6247208;23;20027;-86
2022/09/26 00:22:11;;;;;;;3.35;2.83;;;10.20;99.90;;;;;;6219605;23;20451;-84
2022/09/26 00:24:38;;;;;;;1.80;1.70;;;10.20;99.90;;;;;;6258746;23;20023;-87
2022/09/26 00:27:06;;;;;;;4.45;2.00;;;10.20;99.90;;;;;;6220147;23;20027;-85
2022/09/26 00:29:33;;;;;;;2.03;1.85;;;10.20;99.90;;;;;;6257821;22;20008;-86
2022/09/26 00:32:01;;;;;;;1.75;1.65;;;10.20;99.90;;;;;;6257233;23;20020;-86
2022/09/26 00:34:28;;;;;;;2.53;2.17;;;10.20;99.90;;;;;;6252253;23;20023;-87
2022/09/26 00:36:55;;;;;;;3.38;2.55;;;10.20;99.90;;;;;;6257302;23;20012;-87
2022/09/26 00:39:23;;;;;;;2.40;2.03;;;10.20;99.90;;;;;;6250358;22;20021;-88
2022/09/26 00:41:52;;;;;;;3.03;2.70;;;10.20;99.90;;;;;;6254044;23;20023;-86
2022/09/26 00:44:46;;;;;;;1.80;1.70;;;10.20;99.90;;;;;;6223175;23;20008;-86
2022/09/26 00:47:43;;;;;;;6.07;2.40;;;10.20;99.90;;;;;;6223807;23;20020;-87
2022/09/26 00:50:19;;;;;;;4.38;1.85;;;10.20;99.90;;;;;;6221482;23;20020;-87
2022/09/26 00:53:07;;;;;;;2.47;2.00;;;10.20;99.90;;;;;;6256646;23;20008;-87
2022/09/26 00:55:38;;;;;;;2.67;2.33;;;10.20;99.90;;;;;;6247804;23;20020;-86
2022/09/26 00:58:11;;;;;;;2.67;1.80;;;10.10;99.90;;;;;;6271753;22;20016;-86
2022/09/26 01:00:40;;;;;;;2.85;2.55;;;10.10;99.90;;;;;;6258847;23;20019;-84
2022/09/26 01:03:09;;;;;;;3.10;2.72;;;10.10;99.90;;;;;;6248531;23;20031;-87
2022/09/26 01:05:40;;;;;;;5.47;3.08;;;10.10;99.90;;;;;;6253797;22;20008;-87
2022/09/26 01:08:54;;;;;;;2.80;2.45;;;10.10;99.90;;;;;;6255618;23;20012;-87
2022/09/26 01:11:24;;;;;;;5.35;2.90;;;10.20;99.90;;;;;;6244488;22;20043;-87
2022/09/26 01:13:53;;;;;;;2.75;2.03;;;10.20;99.90;;;;;;6253036;23;20012;-87
2022/09/26 01:16:20;;;;;;;3.65;2.45;;;10.20;99.90;;;;;;6220457;23;20068;-87
2022/09/26 01:18:49;;;;;;;2.45;2.25;;;10.10;99.90;;;;;;6220971;23;20027;-87
2022/09/26 01:21:51;;;;;;;3.70;3.15;;;10.00;99.90;;;;;;6248265;23;20012;-87
2022/09/26 01:24:57;;;;;;;4.18;3.17;;;10.10;99.90;;;;;;6208270;23;20618;-87
2022/09/26 01:27:45;;;;;;;3.25;2.78;;;10.10;99.90;;;;;;6245861;23;20027;-87
2022/09/26 01:30:25;;;;;;;4.13;2.45;;;10.10;99.90;;;;;;6226218;23;20474;-87
2022/09/26 01:33:06;;;;;;;3.30;3.10;;;10.10;99.90;;;;;;6256670;23;20024;-87
2022/09/26 01:35:33;;;;;;;2.95;2.67;;;10.20;99.90;;;;;;6219190;23;20021;-87
2022/09/26 01:38:22;;;;;;;4.75;3.20;;;10.10;99.90;;;;;;6251687;23;20031;-87
2022/09/26 01:41:23;;;;;;;3.42;2.67;;;10.10;99.90;;;;;;6219849;23;20039;-87
2022/09/26 01:44:15;;;;;;;5.03;2.88;;;10.10;99.90;;;;;;6245780;22;20016;-87
2022/09/26 01:47:07;;;;;;;4.63;3.53;;;10.10;99.90;;;;;;6249242;23;20028;-86
2022/09/26 01:49:39;;;;;;;3.17;2.88;;;10.10;99.90;;;;;;6219225;22;20027;-87
2022/09/26 01:52:20;;;;;;;2.55;2.30;;;10.10;99.90;;;;;;6219108;23;20016;-87
2022/09/26 01:55:06;;;;;;;2.47;2.28;;;10.10;99.90;;;;;;6219367;23;20024;-87
2022/09/26 01:57:40;;;;;;;3.67;2.67;;;10.10;99.90;;;;;;6253445;22;20026;-86
2022/09/26 02:00:11;;;;;;;2.75;2.55;;;10.20;99.90;;;;;;6254995;23;20025;-85
2022/09/26 02:02:46;;;;;;;2.45;2.13;;;10.20;99.90;;;;;;6224283;23;20020;-85
2022/09/26 02:05:16;;;;;;;5.25;3.10;;;10.20;99.90;;;;;;6270734;22;20351;-85
2022/09/26 02:07:54;;;;;;;6.20;2.50;;;10.20;99.90;;;;;;6246089;22;20020;-82
2022/09/26 02:10:29;;;;;;;3.33;2.63;;;10.20;99.90;;;;;;6250406;23;20019;-84
2022/09/26 02:13:20;;;;;;;2.80;2.55;;;10.10;99.90;;;;;;6269921;22;20020;-83
2022/09/26 02:15:55;;;;;;;2.30;2.20;;;10.20;99.90;;;;;;6233562;23;20344;-85
2022/09/26 02:18:36;;;;;;;3.97;2.63;;;10.20;99.90;;;;;;6219520;23;20016;-85
2022/09/26 02:21:19;;;;;;;2.92;2.72;;;10.10;99.90;;;;;;6219150;23;20016;-85
2022/09/26 02:23:48;;;;;;;4.65;2.78;;;10.10;99.90;;;;;;6244401;22;20356;-85
2022/09/26 02:26:16;;;;;;;3.45;3.10;;;10.20;99.90;;;;;;6250139;23;20878;-85
2022/09/26 02:28:44;;;;;;;3.55;3.25;;;10.10;99.90;;;;;;6230070;23;20024;-85
2022/09/26 02:31:21;;;;;;;2.92;2.67;;;10.20;99.90;;;;;;6218907;23;20465;-84
2022/09/26 02:33:51;;;;;;;3.78;3.38;;;10.20;99.90;;;;;;6252458;23;20340;-85
2022/09/26 02:36:20;;;;;;;4.00;3.60;;;10.10;99.90;;;;;;6254838;23;20012;-85
2022/09/26 02:38:49;;;;;;;3.60;3.08;;;10.10;99.90;;;;;;6249619;22;20012;-83
2022/09/26 02:41:59;;;;;;;2.35;2.10;;;10.10;99.90;;;;;;6217781;22;20020;-85
2022/09/26 02:44:53;;;;;;;4.97;2.80;;;10.00;99.90;;;;;;6244817;23;20023;-84
2022/09/26 02:48:05;;;;;;;3.08;2.65;;;10.00;99.90;;;;;;6208892;23;20747;-85
2022/09/26 02:51:11;;;;;;;3.00;2.67;;;10.00;99.90;;;;;;6231508;23;20020;-84
2022/09/26 02:54:01;;;;;;;3.50;2.78;;;10.00;99.90;;;;;;6220913;22;20047;-85
2022/09/26 02:56:44;;;;;;;2.30;2.10;;;10.00;99.90;;;;;;6218639;23;20013;-85
2022/09/26 02:59:58;;;;;;;3.05;2.75;;;10.00;99.90;;;;;;6246775;23;20023;-84
2022/09/26 03:02:37;;;;;;;2.50;2.30;;;10.00;99.90;;;;;;6249293;22;20012;-84
2022/09/26 03:05:26;;;;;;;2.80;2.60;;;10.00;99.90;;;;;;6219895;23;20016;-85
2022/09/26 03:08:01;;;;;;;3.13;2.53;;;10.00;99.90;;;;;;6243168;23;20024;-85
2022/09/26 03:10:31;;;;;;;4.68;3.08;;;10.00;99.90;;;;;;6249382;22;20363;-83
2022/09/26 03:13:12;;;;;;;4.15;2.72;;;10.00;99.90;;;;;;6228454;23;20012;-83
2022/09/26 03:15:44;;;;;;;7.57;3.22;;;10.00;99.90;;;;;;6244257;23;20347;-84
2022/09/26 03:18:18;;;;;;;2.97;2.67;;;10.00;99.90;;;;;;6250182;22;20016;-83
2022/09/26 03:20:47;;;;;;;4.30;3.40;;;10.00;99.90;;;;;;6255816;23;20008;-83
2022/09/26 03:23:16;;;;;;;7.18;3.35;;;10.00;99.90;;;;;;6243173;23;20016;-83
2022/09/26 03:25:43;;;;;;;4.18;3.40;;;10.00;99.90;;;;;;6227380;22;20031;-84
2022/09/26 03:28:14;;;;;;;3.97;3.33;;;10.00;99.90;;;;;;6218224;23;20510;-84
2022/09/26 03:30:45;;;;;;;5.28;3.72;;;10.00;99.90;;;;;;6247972;23;20027;-85
2022/09/26 03:33:31;;;;;;;3.90;3.33;;;10.00;99.90;;;;;;6218082;22;20012;-83
2022/09/26 03:35:59;;;;;;;3.65;2.97;;;10.00;99.90;;;;;;6255700;23;20016;-86
2022/09/26 03:38:33;;;;;;;3.42;3.03;;;10.10;99.90;;;;;;6224253;23;20343;-84
2022/09/26 03:41:09;;;;;;;4.07;3.15;;;10.00;99.90;;;;;;6253418;23;20012;-83
2022/09/26 03:43:56;;;;;;;4.72;4.32;;;10.00;99.90;;;;;;6221151;23;20028;-84
2022/09/26 03:46:31;;;;;;;4.35;3.95;;;10.00;99.90;;;;;;6248844;23;20020;-85
2022/09/26 03:49:06;;;;;;;4.65;3.40;;;10.00;99.90;;;;;;6254379;23;20062;-84
2022/09/26 03:51:39;;;;;;;5.45;3.22;;;9.90;99.90;;;;;;6231609;23;20032;-85
2022/09/26 03:54:06;;;;;;;4.68;4.07;;;10.00;99.90;;;;;;6218215;23;20024;-84
2022/09/26 03:56:34;;;;;;;4.78;4.38;;;10.00;99.90;;;;;;6253896;23;20745;-85
2022/09/26 03:59:01;;;;;;;5.00;4.38;;;10.00;99.90;;;;;;6246542;23;20032;-85
2022/09/26 04:01:29;;;;;;;8.70;3.97;;;10.00;99.90;;;;;;6217590;22;20024;-84
2022/09/26 04:03:57;;;;;;;3.08;2.78;;;10.00;99.90;;;;;;6254243;23;20060;-86
2022/09/26 04:06:24;;;;;;;5.30;4.30;;;10.00;99.90;;;;;;6217947;23;20336;-85
2022/09/26 04:08:58;;;;;;;4.72;3.95;;;10.00;99.90;;;;;;6254373;23;20016;-86
2022/09/26 04:11:27;;;;;;;5.55;4.80;;;10.00;99.90;;;;;;6244004;23;20486;-86
2022/09/26 04:13:55;;;;;;;4.80;3.90;;;9.90;99.90;;;;;;6251327;23;20012;-85
2022/09/26 04:16:28;;;;;;;4.22;3.83;;;10.00;99.90;;;;;;6254452;23;20015;-87
2022/09/26 04:19:02;;;;;;;5.68;3.92;;;9.90;99.90;;;;;;6217358;23;20016;-85
2022/09/26 04:21:30;;;;;;;4.50;4.10;;;10.00;99.90;;;;;;6252392;22;20016;-84
2022/09/26 04:23:58;;;;;;;5.32;3.72;;;10.00;99.90;;;;;;6243739;23;20332;-86
2022/09/26 04:26:27;;;;;;;5.03;4.35;;;10.00;99.90;;;;;;6248496;23;20343;-85
2022/09/26 04:28:56;;;;;;;4.57;3.97;;;10.10;99.90;;;;;;6218459;23;20452;-85
2022/09/26 04:31:40;;;;;;;5.30;3.70;;;10.00;99.90;;;;;;6196530;23;20023;-85
2022/09/26 04:34:13;;;;;;;5.13;4.07;;;10.10;99.90;;;;;;6193570;23;20023;-85
2022/09/26 04:36:50;;;;;;;5.70;3.13;;;10.10;99.90;;;;;;6193536;23;20035;-85
2022/09/26 04:39:20;;;;;;;3.53;3.22;;;10.10;99.90;;;;;;6244938;23;20043;-85
2022/09/26 04:41:48;;;;;;;5.88;3.90;;;10.00;99.90;;;;;;6252283;23;20016;-85
2022/09/26 04:44:18;;;;;;;5.95;3.63;;;10.00;99.90;;;;;;6248318;23;20023;-85
2022/09/26 04:46:46;;;;;;;4.60;3.95;;;10.00;99.90;;;;;;6248936;23;20024;-85
2022/09/26 04:49:15;;;;;;;3.25;3.03;;;10.00;99.90;;;;;;6255913;23;20012;-86
2022/09/26 04:51:43;;;;;;;4.13;3.72;;;10.00;99.90;;;;;;6244246;23;20031;-85
2022/09/26 04:54:16;;;;;;;3.70;2.95;;;10.00;99.90;;;;;;6219710;23;20043;-84
2022/09/26 04:56:46;;;;;;;5.00;4.53;;;10.00;99.90;;;;;;6256802;23;20454;-85
2022/09/26 04:59:19;;;;;;;3.83;3.08;;;10.00;99.90;;;;;;6222257;23;20399;-85
2022/09/26 05:02:07;;;;;;;4.53;3.35;;;10.00;99.90;;;;;;6252965;22;20351;-85
2022/09/26 05:04:43;;;;;;;5.15;3.95;;;10.00;99.90;;;;;;6255765;23;20024;-84
2022/09/26 05:07:46;;;;;;;3.67;3.17;;;10.00;99.90;;;;;;6247122;23;20024;-86
2022/09/26 05:10:16;;;;;;;5.60;3.15;;;10.00;99.90;;;;;;6251546;23;20027;-87
2022/09/26 05:12:57;;;;;;;4.82;4.18;;;10.00;99.90;;;;;;6248591;23;20324;-87
2022/09/26 05:15:29;;;;;;;3.88;3.47;;;10.00;99.90;;;;;;6209758;22;20020;-86
2022/09/26 05:17:58;;;;;;;3.90;3.25;;;10.00;99.90;;;;;;6227236;23;20329;-85
2022/09/26 05:20:32;;;;;;;;;;;10.00;99.90;;;;;;6231520;23;20023;-87
2022/09/26 05:23:12;;;;;;;3.30;3.03;;;10.00;99.90;;;;;;6245563;22;19920;-86
2022/09/26 05:28:41;;;;;;;3.78;3.42;;;10.00;99.90;;;;;;6256499;23;20324;-86
2022/09/26 05:31:09;;;;;;;3.38;2.90;;;10.00;99.90;;;;;;6221877;23;20020;-84
2022/09/26 05:34:00;;;;;;;4.18;3.00;;;10.00;99.90;;;;;;6237922;22;20023;-86
2022/09/26 05:37:19;;;;;;;6.20;3.70;;;10.00;99.90;;;;;;6182077;23;20486;-86
2022/09/26 05:43:30;;;;;;;4.05;3.65;;;10.00;99.90;;;;;;6189674;23;20028;-86
2022/09/26 05:46:40;;;;;;;3.70;2.80;;;10.00;99.90;;;;;;6219054;23;20016;-86
2022/09/26 05:49:26;;;;;;;4.15;3.35;;;10.00;99.90;;;;;;6199694;23;20020;-86
2022/09/26 05:52:27;;;;;;;3.28;2.58;;;9.90;99.90;;;;;;6128821;23;20016;-86
2022/09/26 05:55:22;;;;;;;2.30;2.10;;;10.00;99.90;;;;;;6189719;23;20325;-86
2022/09/26 05:58:19;;;;;;;3.92;2.53;;;10.00;99.90;;;;;;6219069;23;20518;-87
2022/09/26 06:01:16;;;;;;;3.10;2.72;;;9.90;99.90;;;;;;6229380;23;20024;-85
2022/09/26 06:04:01;;;;;;;2.72;2.47;;;10.10;99.90;;;;;;6253231;23;20032;-85
2022/09/26 06:06:35;;;;;;;2.40;2.05;;;10.00;99.90;;;;;;6224468;23;20020;-85
2022/09/26 06:09:23;;;;;;;2.30;2.13;;;10.00;99.90;;;;;;6254809;23;20601;-85
2022/09/26 06:12:20;;;;;;;2.42;2.22;;;9.90;99.90;;;;;;6241680;23;20031;-86
2022/09/26 06:14:52;;;;;;;3.20;2.50;;;10.00;99.90;;;;;;6244551;23;20083;-86
2022/09/26 06:17:26;;;;;;;6.22;4.00;;;9.90;99.90;;;;;;6255050;23;20626;-86
2022/09/26 06:19:53;;;;;;;6.47;3.70;;;9.90;99.90;;;;;;6255774;22;20024;-86
2022/09/26 06:22:21;;;;;;;5.13;2.65;;;9.90;99.90;;;;;;6249598;23;20020;-84
2022/09/26 06:24:48;;;;;;;2.55;2.35;;;9.90;99.90;;;;;;6255088;23;20012;-85
2022/09/26 06:27:16;;;;;;;3.38;2.70;;;10.00;99.90;;;;;;6245836;23;20032;-84
2022/09/26 06:29:45;;;;;;;2.35;2.03;;;10.00;99.90;;;;;;6252697;22;20039;-85
2022/09/26 06:32:13;;;;;;;3.97;3.17;;;10.00;99.90;;;;;;6254278;23;20633;-85
2022/09/26 06:35:04;;;;;;;3.17;2.50;;;10.00;99.90;;;;;;6246825;23;20031;-85
2022/09/26 06:37:44;;;;;;;3.70;3.33;;;10.00;99.90;;;;;;6252566;22;20024;-83
2022/09/26 06:40:12;;;;;;;4.32;2.67;;;10.00;99.90;;;;;;6254730;23;20015;-84
2022/09/26 06:42:45;;;;;;;3.75;2.95;;;10.00;99.90;;;;;;6247807;23;20351;-85
2022/09/26 06:45:23;;;;;;;3.67;2.90;;;10.10;99.90;;;;;;6219219;23;20020;-85
2022/09/26 06:48:16;;;;;;;3.85;3.28;;;10.10;99.90;;;;;;6231588;23;20024;-84
2022/09/26 06:50:59;;;;;;;3.08;2.70;;;10.10;99.90;;;;;;6247931;22;20027;-83
2022/09/26 06:53:29;;;;;;;3.95;3.40;;;10.10;99.90;;;;;;6253390;22;20012;-84
2022/09/26 06:55:58;;;;;;;4.63;4.13;;;10.10;99.90;;;;;;6218798;23;20017;-84
2022/09/26 06:58:26;;;;;;;4.90;3.80;;;10.20;99.90;;;;;;6218414;23;20020;-85
2022/09/26 07:01:05;;;;;;;6.78;4.00;;;10.20;99.90;;;;;;6253876;23;20016;-84
2022/09/26 07:03:51;;;;;;;5.55;4.68;;;10.10;99.90;;;;;;6244358;22;20016;-81
2022/09/26 07:06:53;;;;;;;4.43;4.03;;;10.20;99.90;;;;;;6232610;22;20024;-82
2022/09/26 07:09:20;;;;;;;5.95;5.35;;;10.20;99.90;;;;;;6255677;23;20019;-84
2022/09/26 07:12:05;;;;;;;6.50;4.38;;;10.30;99.90;;;;;;6228120;23;20024;-84
2022/09/26 07:14:42;;;;;;;4.93;3.97;;;10.30;99.90;;;;;;6248411;23;20024;-84
2022/09/26 07:17:30;;;;;;;7.55;5.10;;;10.30;99.90;;;;;;6244628;22;20020;-84
2022/09/26 07:20:27;;;;;;;6.72;5.50;;;10.30;99.90;;;;;;6223935;22;20024;-85
2022/09/26 07:23:27;;;;;;;5.20;4.75;;;10.30;99.90;;;;;;6217837;23;20020;-86
2022/09/26 07:25:57;;;;;;;8.57;4.70;;;10.40;99.90;;;;;;6252760;22;20031;-85
2022/09/26 07:28:26;;;;;;;6.05;5.15;;;10.40;99.90;;;;;;6255120;23;20019;-86
2022/09/26 07:30:56;;;;;;;8.05;4.78;;;10.50;99.90;;;;;;6246877;23;20031;-85
2022/09/26 07:33:51;;;;;;;4.22;3.67;;;10.40;99.90;;;;;;6251535;22;20454;-84
2022/09/26 07:36:19;;;;;;;7.20;5.57;;;10.50;99.90;;;;;;6254093;23;20031;-84
2022/09/26 07:38:49;;;;;;;5.95;5.00;;;10.40;99.90;;;;;;6247665;23;20031;-85
2022/09/26 07:41:22;;;;;;;5.07;4.40;;;10.40;99.90;;;;;;6253048;23;20719;-86
2022/09/26 07:43:50;;;;;;;5.05;4.20;;;10.40;99.90;;;;;;6242705;23;20447;-86
2022/09/26 07:53:11;;;;;;;6.75;6.07;;;10.60;99.90;;;;;;6216290;23;20023;-87
2022/09/26 07:56:09;;;;;;;6.10;5.07;;;10.70;99.90;;;;;;6096700;23;20022;-86
2022/09/26 08:03:57;;;;;;;7.22;5.78;;;10.80;99.90;;;;;;6062495;23;20026;-84
2022/09/26 08:06:49;;;;;;;7.82;5.90;;;10.90;99.90;;;;;;6129768;23;20033;-83
2022/09/26 08:15:16;;;;;;;;;;;;;;;;;;;;;
2022/09/26 08:24:22;;;;;;;;;;;;;;;;;;;;;
2022/09/26 08:27:59;;;;;;;5.43;4.15;;;12.00;99.90;;;;;;6117777;23;20024;-84
2022/09/26 08:30:30;;;;;;;15.25;5.95;;;11.60;99.90;;;;;;6250407;23;20028;-85
2022/09/26 08:33:06;;;;;;;5.22;4.00;;;11.50;99.90;;;;;;6230374;23;20683;-86
2022/09/26 08:35:40;;;;;;;6.78;5.40;;;11.40;99.90;;;;;;6219349;23;20024;-85
2022/09/26 08:38:49;;;;;;;6.65;5.55;;;11.50;99.90;;;;;;6230789;22;20028;-82
2022/09/26 08:42:05;;;;;;;7.40;6.10;;;11.30;99.90;;;;;;6255030;22;20016;-82
2022/09/26 08:48:50;;;;;;;6.18;5.63;;;11.40;99.90;;;;;;6254371;23;20344;-85
2022/09/26 08:52:20;;;;;;;8.27;5.38;;;11.50;99.90;;;;;;6221030;23;20027;-85
2022/09/26 08:55:02;;;;;;;5.30;4.28;;;11.70;99.90;;;;;;6244928;23;20027;-86
2022/09/26 08:58:31;;;;;;;4.55;3.97;;;11.80;99.90;;;;;;6238909;22;20008;-87
2022/09/26 09:02:29;;;;;;;4.72;3.67;;;11.90;99.90;;;;;;5974169;23;20026;-88
2022/09/26 09:07:25;;;;;;;3.10;2.65;;;11.80;99.90;;;;;;6041484;23;20022;-86
2022/09/26 09:25:54;;;;;;;3.40;2.83;;;12.20;99.90;;;;;;6019766;23;20018;-88
2022/09/26 09:43:58;;;;;;;2.28;2.08;;;11.60;99.90;;;;;;6044959;23;20030;-85
2022/09/26 09:47:49;;;;;;;;;;;;;;;;;;;;;
2022/09/26 09:57:11;;;;;;;3.35;2.40;;;11.70;99.90;;;;;;5892882;24;20048;-88
2022/09/26 10:00:45;;;;;;;2.72;2.03;;;11.70;99.90;;;;;;5924570;24;20033;-88
2022/09/26 10:11:16;;;;;;;2.95;2.72;;;11.50;99.90;;;;;;6179507;23;20020;-87
2022/09/26 10:14:51;;;;;;;2.50;2.30;;;11.50;99.90;;;;;;6232771;23;20012;-89
2022/09/26 10:42:03;;;;;;;2.53;2.20;;;12.50;99.90;;;;;;6229473;22;20024;-85
2022/09/26 10:48:54;;;;;;;1.90;1.70;;;13.20;99.90;;;;;;6245986;23;20028;-85
2022/09/26 10:52:19;;;;;;;2.03;1.88;;;13.50;99.90;;;;;;6218329;23;20031;-85
2022/09/26 10:55:56;;;;;;;2.17;1.73;;;13.30;99.90;;;;;;6193101;23;20031;-86
2022/09/26 11:06:49;;;;;;;1.33;1.23;;;13.60;99.90;;;;;;6117127;23;20319;-86
2022/09/26 11:09:45;;;;;;;1.98;1.30;;;13.80;99.90;;;;;;6122564;23;20030;-84
2022/09/26 11:12:40;;;;;;;3.83;3.53;;;13.70;99.90;;;;;;6135189;23;20041;-85
2022/09/26 11:15:13;;;;;;;2.92;1.30;;;13.40;99.90;;;;;;6106170;23;20018;-85
2022/09/26 11:17:49;;;;;;;1.25;1.15;;;13.20;99.90;;;;;;6062257;23;20041;-86
2022/09/26 11:20:38;;;;;;;1.65;1.17;;;13.00;99.90;;;;;;6123906;23;20033;-86
2022/09/26 11:23:29;;;;;;;1.95;1.85;;;12.90;99.90;;;;;;6098318;23;20029;-87
2022/09/26 11:26:58;;;;;;;1.00;1.00;;;12.80;99.90;;;;;;6122978;23;20033;-89
2022/09/26 11:30:10;;;;;;;1.67;1.58;;;12.60;99.90;;;;;;6099221;23;20037;-86
2022/09/26 11:32:55;;;;;;;1.40;1.27;;;12.50;99.90;;;;;;6126035;23;20014;-86
2022/09/26 11:36:06;;;;;;;5.82;2.20;;;12.40;99.90;;;;;;6105727;23;20022;-87
2022/09/26 11:39:23;;;;;;;3.42;1.90;;;11.90;99.90;;;;;;6099767;23;20010;-86
2022/09/26 11:42:13;;;;;;;2.67;1.73;;;11.50;99.90;;;;;;6124477;23;20022;-89
2022/09/26 11:45:07;;;;;;;1.42;1.33;;;11.30;99.90;;;;;;6123754;23;20041;-85
2022/09/26 11:49:00;;;;;;;2.22;2.03;;;11.10;99.90;;;;;;6061983;23;20026;-85
2022/09/26 11:59:58;;;;;;;1.20;1.08;;;11.10;99.90;;;;;;6173418;23;20028;-87
2022/09/26 12:11:14;;;;;;;1.50;1.20;;;11.30;99.90;;;;;;6182568;23;20024;-86
2022/09/26 12:30:11;;;;;;;1.58;1.48;;;12.80;99.90;;;;;;6255043;23;20309;-84
2022/09/26 12:33:09;;;;;;;2.50;1.25;;;12.80;99.90;;;;;;6218033;23;20023;-91
2022/09/26 12:35:54;;;;;;;1.17;0.93;;;13.00;99.90;;;;;;6194268;23;20020;-90
2022/09/26 12:38:45;;;;;;;1.88;1.15;;;13.10;99.90;;;;;;6181808;23;20016;-90
2022/09/26 12:42:29;;;;;;;1.38;0.95;;;12.90;99.90;;;;;;6192542;23;20011;-93
2022/09/26 12:45:16;;;;;;;;;;;12.70;99.90;;;;;;6167083;23;20329;-94
2022/09/26 12:48:20;;;;;;;1.45;1.35;;;12.80;99.90;;;;;;6190104;23;19924;-91
2022/09/26 12:51:14;;;;;;;1.35;1.25;;;12.80;99.90;;;;;;6088557;23;20028;-91
2022/09/26 12:54:31;;;;;;;1.77;1.67;;;13.10;99.90;;;;;;6190333;23;20059;-95
2022/09/26 12:58:00;;;;;;;1.40;1.30;;;13.20;99.90;;;;;;6160860;23;20012;-92
2022/09/26 13:01:10;;;;;;;2.95;1.73;;;12.90;99.90;;;;;;6166223;23;20032;-95
2022/09/26 13:04:30;;;;;;;1.67;1.58;;;13.10;99.90;;;;;;6142110;23;20016;-92
2022/09/26 13:12:29;;;;;;;1.92;1.50;;;13.70;99.90;;;;;;6149252;23;20028;-93
2022/09/26 13:19:39;;;;;;;1.52;1.42;;;13.40;99.90;;;;;;6098442;23;20034;-93
2022/09/26 13:22:47;;;;;;;2.95;1.90;;;13.20;99.90;;;;;;6006461;23;20019;-92
2022/09/26 13:39:01;;;;;;;1.50;1.40;;;14.20;99.90;;;;;;6198203;22;20765;-91
2022/09/26 13:46:14;;;;;;;1.90;1.30;;;14.40;99.90;;;;;;6179331;23;20017;-93
2022/09/26 13:49:41;;;;;;;2.33;1.88;;;14.70;99.90;;;;;;6216038;23;20020;-94
2022/09/26 13:52:51;;;;;;;1.63;1.10;;;14.60;99.90;;;;;;6141041;23;20468;-92
2022/09/26 13:57:24;;;;;;;1.27;1.23;;;14.50;99.90;;;;;;6170809;23;20023;-92
2022/09/26 14:00:30;;;;;;;1.63;1.37;;;14.20;99.90;;;;;;6124398;23;20023;-91
2022/09/26 14:03:08;;;;;;;1.52;1.30;;;13.90;99.90;;;;;;6192560;23;20317;-93
2022/09/26 14:12:02;;;;;;;2.88;1.60;;;14.60;99.90;;;;;;6074099;23;20084;-93
2022/09/26 14:15:22;;;;;;;2.72;1.98;;;14.60;99.90;;;;;;6106440;23;20022;-93
2022/09/26 14:35:04;;;;;;;1.90;1.70;;;14.50;99.90;;;;;;6215359;23;20271;-89
2022/09/26 14:38:22;;;;;;;1.75;1.17;;;14.30;99.90;;;;;;6166378;23;20020;-92
2022/09/26 14:47:02;;;;;;;1.88;1.63;;;14.40;99.90;;;;;;5981154;23;20032;-92
2022/09/26 14:49:36;;;;;;;;;;;14.10;99.90;;;;;;6034265;23;20033;-87
2022/09/26 14:52:18;;;;;;;2.67;1.30;;;14.30;99.90;;;;;;6197484;23;19916;-87
2022/09/26 14:54:46;;;;;;;3.70;1.40;;;14.50;99.90;;;;;;6223340;22;20020;-87
2022/09/26 14:57:27;;;;;;;1.52;1.42;;;14.60;99.90;;;;;;6229159;23;20019;-86
2022/09/26 14:59:56;;;;;;;2.42;1.70;;;14.90;99.90;;;;;;6218413;23;20472;-87
2022/09/26 15:02:40;;;;;;;1.35;1.25;;;15.00;99.90;;;;;;6169005;23;20035;-88
2022/09/26 15:05:26;;;;;;;1.52;1.20;;;15.20;99.90;;;;;;6219645;23;20331;-87
2022/09/26 15:07:54;;;;;;;1.35;1.10;;;15.20;99.90;;;;;;6218096;23;20024;-86
2022/09/26 15:10:23;;;;;;;2.08;1.85;;;15.00;99.90;;;;;;6249914;22;20016;-85
2022/09/26 15:13:20;;;;;;;1.52;1.42;;;15.00;99.90;;;;;;6168852;23;20023;-86
2022/09/26 15:15:47;;;;;;;1.38;1.27;;;14.80;99.90;;;;;;6245159;23;20023;-85
2022/09/26 15:18:18;;;;;;;1.30;1.20;;;14.90;99.90;;;;;;6251575;22;20012;-86
2022/09/26 15:20:50;;;;;;;1.20;1.10;;;14.90;99.90;;;;;;6169297;23;20016;-86
2022/09/26 15:23:26;;;;;;;1.42;1.30;;;14.90;99.90;;;;;;6192843;23;20347;-84
2022/09/26 15:25:58;;;;;;;0.98;0.90;;;15.00;99.90;;;;;;6192562;23;20020;-84
2022/09/26 15:28:26;;;;;;;1.70;1.42;;;15.00;99.90;;;;;;6193947;23;20342;-85
2022/09/26 15:31:19;;;;;;;1.40;1.30;;;15.00;99.90;;;;;;6242805;23;20325;-84
2022/09/26 15:34:03;;;;;;;2.75;1.73;;;15.00;99.90;;;;;;6242881;22;20028;-86
2022/09/26 15:36:43;;;;;;;1.55;1.30;;;14.90;99.90;;;;;;6216990;23;20427;-86
2022/09/26 15:39:35;;;;;;;0.88;0.88;;;14.90;99.90;;;;;;6218434;23;20020;-94
2022/09/26 15:45:45;;;;;;;2.40;1.20;;;14.90;99.90;;;;;;6196651;23;20027;-92
2022/09/26 15:48:18;;;;;;;1.77;1.30;;;14.70;99.90;;;;;;6160043;23;20024;-93
2022/09/26 15:50:51;;;;;;;0.88;0.88;;;14.50;99.90;;;;;;6177758;23;20024;-93
2022/09/26 15:53:32;;;;;;;2.35;2.15;;;14.20;99.90;;;;;;6203686;23;20461;-94
2022/09/26 15:56:08;;;;;;;1.02;0.90;;;13.80;99.90;;;;;;6178378;23;20023;-95
2022/09/26 15:58:42;;;;;;;0.85;0.70;;;13.60;99.90;;;;;;6194060;23;20016;-90
2022/09/26 16:01:19;;;;;;;1.20;1.10;;;13.40;99.90;;;;;;6170526;23;20012;-92
2022/09/26 16:04:04;;;;;;;0.82;0.82;;;13.30;99.90;;;;;;6220744;23;20020;-94
2022/09/26 16:07:43;;;;;;;1.90;1.48;;;13.30;99.90;;;;;;6192665;23;20452;-84
2022/09/26 16:12:12;;;;;;;1.23;1.13;;;13.20;99.90;;;;;;6177819;23;20016;-85
2022/09/26 16:15:17;;;;;;;1.58;1.17;;;13.00;99.90;;;;;;6194866;23;20028;-84
2022/09/26 16:18:01;;;;;;;0.98;0.85;;;12.90;99.90;;;;;;6174763;22;20020;-90
2022/09/26 16:26:20;;;;;;;;;;;;;;;;;;;;;
2022/09/26 16:31:02;;;;;;;1.35;0.68;;;13.90;99.90;;;;;;6125526;23;20885;-92
2022/09/26 16:36:02;;;;;;;1.80;1.67;;;13.50;99.90;;;;;;6015585;23;20151;-92
2022/09/26 16:45:50;;;;;;;1.20;1.20;;;12.70;99.90;;;;;;6126247;23;20017;-92
2022/09/26 16:49:07;;;;;;;1.67;1.00;;;12.30;99.90;;;;;;6087063;23;20029;-95
2022/09/26 16:52:32;;;;;;;2.10;2.00;;;12.10;99.90;;;;;;6102713;23;20026;-93
2022/09/26 16:55:13;;;;;;;2.25;1.35;;;11.80;99.90;;;;;;6078545;23;20084;-92
2022/09/26 16:58:11;;;;;;;1.00;1.00;;;11.60;99.90;;;;;;6136701;23;20453;-92
2022/09/26 17:04:16;;;;;;;0.85;0.82;;;11.30;99.90;;;;;;6138900;23;20025;-93
2022/09/26 17:07:13;;;;;;;1.00;0.93;;;11.30;99.90;;;;;;6154896;23;20444;-94
2022/09/26 17:10:26;;;;;;;1.08;0.98;;;11.20;99.90;;;;;;6170598;23;20516;-92
2022/09/26 17:13:51;;;;;;;2.60;0.80;;;11.10;99.90;;;;;;6157771;23;20009;-91
2022/09/26 17:16:33;;;;;;;0.90;0.90;;;11.00;99.90;;;;;;6171372;23;20028;-90
2022/09/26 17:19:30;;;;;;;0.98;0.98;;;10.90;99.90;;;;;;6178875;23;20317;-92
2022/09/26 17:22:22;;;;;;;0.80;0.80;;;10.70;99.90;;;;;;6153958;23;20041;-91
2022/09/26 17:25:32;;;;;;;1.63;1.30;;;10.60;99.90;;;;;;6087524;23;20445;-90
2022/09/26 17:28:45;;;;;;;2.22;0.82;;;10.40;99.90;;;;;;6091246;23;20054;-90
2022/09/26 17:32:25;;;;;;;3.80;1.23;;;10.40;99.90;;;;;;6059497;23;20029;-89
2022/09/26 17:35:43;;;;;;;1.20;0.85;;;10.20;99.90;;;;;;6094898;23;20322;-90
2022/09/26 17:39:46;;;;;;;3.20;1.02;;;10.10;99.90;;;;;;6055340;23;20498;-90
2022/09/26 17:43:05;;;;;;;0.90;0.85;;;10.00;99.90;;;;;;6052972;23;20030;-90
2022/09/26 17:46:30;;;;;;;9.63;3.70;;;9.90;99.90;;;;;;6053731;23;20030;-90
2022/09/26 17:50:01;;;;;;;0.80;0.80;;;9.70;99.90;;;;;;6028931;23;20014;-89
2022/09/26 17:53:48;;;;;;;0.68;0.68;;;9.60;99.90;;;;;;6052826;23;20278;-91
2022/09/26 18:03:42;;;;;;;1.50;1.40;;;9.50;99.90;;;;;;5982109;23;20063;-93
2022/09/26 18:30:56;;;;;;;2.08;1.45;;;9.70;99.90;;;;;;6246384;23;20024;-88
2022/09/26 18:33:46;;;;;;;1.50;1.40;;;9.60;99.90;;;;;;6179321;23;20016;-85
2022/09/26 18:36:22;;;;;;;2.78;1.65;;;9.70;99.90;;;;;;6214340;23;20020;-86
2022/09/26 18:38:50;;;;;;;2.05;1.95;;;9.80;99.90;;;;;;6162247;23;20029;-84
2022/09/26 18:41:20;;;;;;;2.95;1.98;;;9.70;99.90;;;;;;6243419;23;20024;-84
2022/09/26 18:43:56;;;;;;;1.85;1.30;;;9.80;99.90;;;;;;6194799;23;20331;-84
2022/09/26 18:46:24;;;;;;;4.30;1.52;;;9.70;99.90;;;;;;6189111;23;20032;-83
2022/09/26 18:49:05;;;;;;;2.00;1.90;;;9.70;99.90;;;;;;6164812;23;20016;-87
2022/09/26 18:51:39;;;;;;;2.92;1.88;;;9.70;99.90;;;;;;6187657;23;20036;-84
2022/09/26 18:54:40;;;;;;;1.27;1.15;;;9.70;99.90;;;;;;6246909;23;20020;-85
2022/09/26 19:00:13;;;;;;;2.22;2.00;;;9.90;99.90;;;;;;6165882;23;20024;-84